Time;durP1;ratioP1;P1;durP2;ratioP2;P2;SDS_P1;SDS_P2;PMS_P1;PMS_P2;Temp;Humidity;BMP_temperature;BMP_pressure;BME280_temperature;BME280_humidity;BME280_pressure;Samples;Min_cycle;Max_cycle;Signal;HPM_P1;HPM_P2
2022/12/28 00:02:18;;;;;;;2.47;1.63;;;;;;;6.91;82.13;96243.00;5115198;28;20431;-59
2022/12/28 00:04:47;;;;;;;0.87;0.87;;;;;;;6.56;83.62;96234.16;5115052;28;20829;-59
2022/12/28 00:07:16;;;;;;;0.60;0.40;;;;;;;6.80;82.96;96241.16;5114852;28;20510;-59
2022/12/28 00:09:44;;;;;;;0.50;0.43;;;;;;;6.89;82.26;96239.81;5114861;28;20431;-58
2022/12/28 00:12:12;;;;;;;6.33;0.70;;;;;;;6.89;82.51;96240.59;5115324;28;20435;-59
2022/12/28 00:14:42;;;;;;;1.17;1.17;;;;;;;7.02;83.58;96239.63;5114489;28;20490;-58
2022/12/28 00:17:13;;;;;;;1.07;1.07;;;;;;;6.99;79.93;96235.59;5114712;28;20435;-58
2022/12/28 00:19:41;;;;;;;1.03;0.70;;;;;;;6.77;81.50;96242.41;5114732;28;20434;-58
2022/12/28 00:22:09;;;;;;;0.40;0.40;;;;;;;5.99;84.76;96162.53;5114745;28;20896;-58
2022/12/28 00:24:38;;;;;;;9.03;1.90;;;;;;;6.05;87.94;96248.47;5114655;28;20542;-58
2022/12/28 00:27:06;;;;;;;1.67;0.70;;;;;;;5.96;90.01;96247.19;5114835;28;20424;-58
2022/12/28 00:29:34;;;;;;;0.73;0.73;;;;;;;6.18;88.36;96248.34;5114713;28;20420;-58
2022/12/28 00:32:04;;;;;;;1.67;0.73;;;;;;;6.16;87.87;96252.22;5114117;28;20769;-59
2022/12/28 00:34:32;;;;;;;1.30;0.90;;;;;;;6.51;85.69;96247.97;5113598;28;20424;-57
2022/12/28 00:37:01;;;;;;;5.10;1.63;;;;;;;6.28;84.10;96261.81;5114581;28;20451;-59
2022/12/28 00:39:40;;;;;;;0.70;0.70;;;;;;;5.70;87.18;96253.44;5114179;28;20880;-58
2022/12/28 00:42:08;;;;;;;2.87;2.47;;;;;;;5.12;87.79;96254.69;5114324;28;20424;-59
2022/12/28 00:44:37;;;;;;;0.50;0.50;;;;;;;5.23;90.85;96261.91;5114530;28;20487;-58
2022/12/28 00:47:07;;;;;;;13.23;3.23;;;;;;;5.31;89.47;96260.84;5114337;28;20424;-58
2022/12/28 00:49:35;;;;;;;1.13;1.13;;;;;;;5.63;86.46;96260.59;5113745;28;20975;-58
2022/12/28 00:52:03;;;;;;;3.40;3.20;;;;;;;5.97;84.77;96258.50;5113927;28;20527;-58
2022/12/28 00:54:32;;;;;;;3.83;3.63;;;;;;;6.12;83.14;96256.34;5113928;28;20440;-58
2022/12/28 00:57:00;;;;;;;2.80;2.17;;;;;;;6.02;82.45;96271.81;5114237;28;20499;-58
2022/12/28 00:59:28;;;;;;;1.57;1.57;;;;;;;6.14;82.08;96276.16;5114189;28;20767;-58
2022/12/28 01:01:56;;;;;;;4.93;0.90;;;;;;;6.00;81.99;96273.84;5113865;28;20424;-58
2022/12/28 01:04:26;;;;;;;3.33;3.03;;;;;;;5.82;83.19;96279.84;5113466;28;20432;-59
2022/12/28 01:06:54;;;;;;;1.17;1.17;;;;;;;6.02;82.46;96272.59;5113707;28;20428;-58
2022/12/28 01:09:23;;;;;;;7.43;2.23;;;;;;;5.78;83.54;96287.38;5113256;28;20463;-58
2022/12/28 01:11:51;;;;;;;2.33;2.20;;;;;;;6.15;82.11;96283.00;5113964;28;20511;-60
2022/12/28 01:14:19;;;;;;;2.00;1.00;;;;;;;6.07;81.02;96287.75;5113271;28;20518;-57
2022/12/28 01:16:48;;;;;;;12.03;1.37;;;;;;;6.21;80.93;96287.41;5113408;28;20428;-59
2022/12/28 01:19:20;;;;;;;1.93;1.30;;;;;;;6.20;79.80;96291.06;5113419;28;20443;-59
2022/12/28 01:21:51;;;;;;;1.37;1.27;;;;;;;6.15;81.80;96283.00;5113568;28;20459;-58
2022/12/28 01:24:20;;;;;;;1.03;1.03;;;;;;;6.26;83.38;96286.75;5113053;28;20549;-58
2022/12/28 01:26:48;;;;;;;3.90;1.37;;;;;;;6.16;81.80;96287.25;5113350;28;21035;-58
2022/12/28 01:29:16;;;;;;;0.77;0.57;;;;;;;6.20;83.21;96271.81;5113567;28;20419;-58
2022/12/28 01:31:44;;;;;;;1.17;1.17;;;;;;;6.15;83.61;96277.75;5113249;28;20431;-58
2022/12/28 01:34:13;;;;;;;1.00;1.00;;;;;;;6.24;84.09;96283.53;5113407;28;20461;-58
2022/12/28 01:36:42;;;;;;;1.20;1.10;;;;;;;6.31;83.51;96277.19;5113188;28;20537;-58
2022/12/28 01:39:11;;;;;;;0.80;0.67;;;;;;;6.35;84.32;96286.25;5112752;28;20499;-58
2022/12/28 01:41:41;;;;;;;4.93;1.10;;;;;;;6.37;83.20;96278.91;5113162;28;20443;-58
2022/12/28 01:44:42;;;;;;;1.33;1.33;;;;;;;6.39;83.68;96276.09;5112168;28;20821;-58
2022/12/28 01:47:14;;;;;;;4.47;1.83;;;;;;;5.97;83.67;96204.03;5112973;28;20431;-58
2022/12/28 01:49:48;;;;;;;2.80;2.70;;;;;;;6.48;88.80;96279.25;5113173;28;20463;-57
2022/12/28 01:52:21;;;;;;;0.43;0.43;;;;;;;6.35;84.17;96264.38;5112512;28;20472;-58
2022/12/28 01:54:54;;;;;;;2.53;0.97;;;;;;;6.47;85.71;96267.09;5113481;28;20440;-58
2022/12/28 01:57:27;;;;;;;2.30;2.20;;;;;;;6.52;84.57;96273.31;5112839;28;20873;-58
2022/12/28 02:00:05;;;;;;;1.10;1.10;;;;;;;6.38;81.30;96264.75;5112798;28;20923;-59
2022/12/28 02:02:34;;;;;;;4.07;1.50;;;;;;;6.18;81.44;96271.22;5112766;28;20526;-59
2022/12/28 02:05:04;;;;;;;1.80;1.80;;;;;;;5.48;82.83;96265.38;5112555;28;20489;-58
2022/12/28 02:07:40;;;;;;;8.93;3.07;;;;;;;4.59;97.99;96254.19;5112667;28;20417;-58
2022/12/28 02:10:11;;;;;;;2.37;1.60;;;;;;;4.73;100.00;96276.72;5112383;28;20810;-58
2022/12/28 02:13:00;;;;;;;1.80;1.70;;;;;;;4.44;100.00;96278.06;5112474;28;20940;-58
2022/12/28 02:15:28;;;;;;;5.93;4.90;;;;;;;4.66;100.00;96277.75;5112171;28;20519;-58
2022/12/28 02:17:58;;;;;;;2.30;2.10;;;;;;;4.85;95.96;96280.31;5112132;28;20530;-57
2022/12/28 02:20:34;;;;;;;4.40;1.87;;;;;;;4.75;93.71;96279.16;5111036;28;20900;-58
2022/12/28 02:23:27;;;;;;;5.40;2.40;;;;;;;5.22;89.42;96278.69;5112403;28;20460;-58
2022/12/28 02:26:34;;;;;;;2.13;1.97;;;;;;;5.71;84.80;96273.47;5111818;28;20459;-59
2022/12/28 02:29:42;;;;;;;1.50;0.90;;;;;;;5.54;83.50;96282.91;5111736;28;20428;-59
2022/12/28 02:32:22;;;;;;;2.63;2.17;;;;;;;5.39;84.92;96279.00;5112109;28;20541;-58
2022/12/28 02:34:57;;;;;;;0.50;0.50;;;;;;;5.43;84.84;96282.78;5112017;28;20474;-58
2022/12/28 02:37:32;;;;;;;0.70;0.70;;;;;;;5.30;89.63;96290.75;5112297;28;20423;-58
2022/12/28 02:40:05;;;;;;;1.13;0.93;;;;;;;5.50;89.51;96276.47;5112456;28;20431;-58
2022/12/28 02:42:36;;;;;;;1.50;1.03;;;;;;;5.58;87.26;96278.84;5111608;28;20435;-59
2022/12/28 02:50:50;;;;;;;0.60;0.60;;;;;;;5.67;86.46;96276.72;5111715;28;20482;-58
2022/12/28 02:53:41;;;;;;;2.10;2.00;;;;;;;5.25;88.29;96280.91;5111192;28;20449;-58
2022/12/28 02:56:21;;;;;;;1.80;0.97;;;;;;;5.50;91.16;96275.66;5108535;28;20479;-58
2022/12/28 02:59:19;;;;;;;1.20;1.20;;;;;;;5.56;88.60;96270.38;5111496;28;20463;-58
2022/12/28 03:02:27;;;;;;;1.00;0.87;;;;;;;5.94;90.97;96266.81;5108836;28;20970;-58
2022/12/28 03:05:10;;;;;;;3.23;0.93;;;;;;;6.01;87.59;96272.81;5029081;28;20489;-58
2022/12/28 03:10:38;;;;;;;1.20;1.20;;;;;;;6.08;86.32;96270.94;5111026;28;20426;-58
2022/12/28 03:13:41;;;;;;;0.87;0.87;;;;;;;5.94;87.14;96269.47;5111763;28;20939;-58
2022/12/28 03:16:06;;;;;;;5.43;1.07;;;;;;;6.03;85.38;96268.16;5111172;28;20432;-58
2022/12/28 03:32:47;;;;;;;1.13;1.03;;;;;;;5.64;82.77;96291.13;5111448;28;20471;-59
2022/12/28 03:35:16;;;;;;;3.70;0.70;;;;;;;4.99;90.69;96296.81;5111570;28;20432;-59
2022/12/28 03:37:53;;;;;;;3.00;1.80;;;;;;;4.99;97.71;96295.00;5111891;28;20431;-58
2022/12/28 03:40:31;;;;;;;1.17;0.97;;;;;;;5.17;92.27;96296.09;5111479;28;20468;-59
2022/12/28 03:45:56;;;;;;;0.60;0.60;;;;;;;5.59;87.64;96295.44;5111613;28;20450;-59
2022/12/28 03:48:25;;;;;;;0.57;0.57;;;;;;;4.60;89.12;96239.25;5111362;28;20859;-58
2022/12/28 03:50:55;;;;;;;2.13;2.00;;;;;;;5.33;88.25;96301.66;5111322;28;20464;-59
2022/12/28 03:53:30;;;;;;;2.07;0.90;;;;;;;5.47;85.98;96302.38;5111910;28;20455;-59
2022/12/28 03:56:13;;;;;;;0.83;0.83;;;;;;;5.49;84.78;96290.63;5111687;28;20838;-58
2022/12/28 03:58:41;;;;;;;1.00;1.00;;;;;;;5.54;83.65;96296.03;5111449;28;20943;-58
2022/12/28 04:01:10;;;;;;;0.83;0.83;;;;;;;5.62;83.74;96300.25;5111312;28;20459;-59
2022/12/28 04:03:39;;;;;;;1.60;1.60;;;;;;;5.61;84.35;96299.47;5111477;28;20424;-58
2022/12/28 04:06:08;;;;;;;0.70;0.70;;;;;;;4.86;83.61;96225.94;5111285;28;20557;-58
2022/12/28 04:08:37;;;;;;;1.87;1.77;;;;;;;5.46;84.05;96316.56;5114283;28;20420;-58
2022/12/28 04:11:06;;;;;;;0.47;0.43;;;;;;;4.97;87.95;96309.34;5115097;28;20503;-58
2022/12/28 04:13:34;;;;;;;2.10;1.37;;;;;;;5.19;86.09;96307.22;5115193;28;20450;-58
2022/12/28 04:16:04;;;;;;;0.40;0.40;;;;;;;5.36;86.18;96316.22;5114935;28;20430;-58
2022/12/28 04:18:33;;;;;;;1.63;1.37;;;;;;;5.51;85.52;96314.09;5115364;28;20436;-58
2022/12/28 04:21:03;;;;;;;0.80;0.80;;;;;;;5.83;90.07;96315.66;5115255;28;20532;-58
2022/12/28 04:23:32;;;;;;;0.80;0.80;;;;;;;5.70;83.34;96321.00;5114654;28;20444;-58
2022/12/28 04:26:03;;;;;;;2.83;0.60;;;;;;;5.79;82.87;96319.75;5114637;28;20456;-58
2022/12/28 04:28:32;;;;;;;0.87;0.60;;;;;;;5.77;82.26;96327.84;5115030;28;20904;-58
2022/12/28 04:31:02;;;;;;;0.53;0.53;;;;;;;5.77;82.51;96325.22;5114979;28;20454;-58
2022/12/28 04:33:33;;;;;;;2.97;2.87;;;;;;;5.77;81.53;96333.09;5114604;28;20443;-58
2022/12/28 04:36:06;;;;;;;1.70;1.10;;;;;;;5.75;82.19;96332.50;5114304;28;20427;-58
2022/12/28 04:38:34;;;;;;;0.30;0.20;;;;;;;5.80;82.24;96329.25;5114731;28;20450;-58
2022/12/28 04:41:06;;;;;;;2.50;2.40;;;;;;;5.78;81.69;96331.28;5114459;28;20519;-58
2022/12/28 04:43:35;;;;;;;0.50;0.50;;;;;;;5.75;81.52;96331.69;5114341;28;20464;-58
2022/12/28 04:46:05;;;;;;;0.40;0.30;;;;;;;5.26;82.01;96245.72;5114523;28;20424;-58
2022/12/28 04:48:34;;;;;;;0.63;0.63;;;;;;;5.73;82.77;96313.53;5113769;28;20533;-57
2022/12/28 04:51:07;;;;;;;0.50;0.50;;;;;;;5.78;82.77;96312.88;5114357;28;20472;-58
2022/12/28 04:53:39;;;;;;;0.30;0.30;;;;;;;5.92;82.66;96317.03;5114532;28;20510;-57
2022/12/28 04:56:10;;;;;;;0.77;0.77;;;;;;;5.94;82.88;96324.72;5114281;28;20428;-58
2022/12/28 04:58:39;;;;;;;1.37;1.37;;;;;;;4.99;88.16;96318.63;5114460;28;20515;-57
2022/12/28 05:01:09;;;;;;;8.93;2.03;;;;;;;5.40;89.35;96333.16;5114412;28;20774;-57
2022/12/28 05:03:39;;;;;;;1.30;1.23;;;;;;;5.64;87.53;96337.66;5114354;28;20436;-57
2022/12/28 05:06:10;;;;;;;0.40;0.40;;;;;;;5.66;86.53;96327.75;5114013;28;20528;-57
2022/12/28 05:08:39;;;;;;;4.73;0.97;;;;;;;5.66;86.47;96338.25;5113571;28;20507;-57
2022/12/28 05:11:12;;;;;;;1.90;1.80;;;;;;;5.06;89.71;96342.22;5114268;28;20539;-58
2022/12/28 05:13:41;;;;;;;1.37;1.27;;;;;;;5.53;89.73;96343.59;5114065;28;20424;-57
2022/12/28 05:16:11;;;;;;;1.33;1.33;;;;;;;5.59;89.23;96340.13;5113825;28;20424;-57
2022/12/28 05:18:40;;;;;;;1.03;0.80;;;;;;;5.72;87.11;96353.16;5113431;28;20408;-57
2022/12/28 05:21:12;;;;;;;5.10;1.80;;;;;;;5.29;86.81;96345.16;5113832;28;20522;-57
2022/12/28 05:23:40;;;;;;;1.47;1.40;;;;;;;4.77;89.30;96354.09;5113875;28;20420;-57
2022/12/28 05:26:12;;;;;;;4.23;2.50;;;;;;;4.38;91.30;96347.13;5113864;28;20431;-57
2022/12/28 05:28:40;;;;;;;2.80;2.60;;;;;;;4.25;93.52;96362.88;5113698;28;20472;-57
2022/12/28 05:31:13;;;;;;;2.60;2.40;;;;;;;4.52;91.58;96363.66;5113548;28;20432;-57
2022/12/28 05:33:42;;;;;;;0.97;0.97;;;;;;;4.84;89.60;96364.56;5113414;28;20446;-57
2022/12/28 05:36:12;;;;;;;9.93;1.60;;;;;;;5.17;86.38;96359.97;5113428;28;20439;-58
2022/12/28 05:38:41;;;;;;;2.63;2.53;;;;;;;5.21;84.93;96357.75;5113538;28;20415;-57
2022/12/28 05:41:13;;;;;;;3.03;2.93;;;;;;;5.35;84.07;96357.47;5113620;28;20522;-57
2022/12/28 05:43:42;;;;;;;8.93;4.00;;;;;;;4.89;83.65;96367.38;5113421;28;20927;-57
2022/12/28 05:46:13;;;;;;;9.33;3.97;;;;;;;4.20;87.14;96369.78;5113363;28;20498;-57
2022/12/28 05:48:43;;;;;;;7.50;6.47;;;;;;;3.60;89.95;96376.81;5113127;28;20958;-57
2022/12/28 05:51:13;;;;;;;4.33;4.13;;;;;;;3.20;93.37;96372.50;5113214;28;20446;-56
2022/12/28 05:53:41;;;;;;;2.70;2.50;;;;;;;2.92;93.98;96382.28;5113599;28;20860;-57
2022/12/28 05:56:13;;;;;;;4.40;3.97;;;;;;;2.72;96.73;96374.34;5113484;28;20424;-57
2022/12/28 05:58:42;;;;;;;1.93;1.83;;;;;;;2.68;100.00;96382.78;5112898;28;20424;-57
2022/12/28 06:01:12;;;;;;;1.87;1.77;;;;;;;2.85;100.00;96376.22;5113375;28;20435;-57
2022/12/28 06:03:42;;;;;;;3.43;3.13;;;;;;;3.67;95.41;96380.25;5113381;28;20420;-55
2022/12/28 06:06:12;;;;;;;3.83;3.60;;;;;;;4.41;88.57;96388.72;5112991;28;20442;-54
2022/12/28 06:08:41;;;;;;;2.33;1.20;;;;;;;4.99;86.35;96381.69;5112693;28;20542;-53
2022/12/28 06:11:13;;;;;;;0.63;0.63;;;;;;;5.17;84.39;96370.50;5113125;28;20423;-53
2022/12/28 06:13:42;;;;;;;1.47;1.37;;;;;;;5.09;83.33;96376.78;5112911;28;20933;-53
2022/12/28 06:16:13;;;;;;;1.90;1.80;;;;;;;5.19;86.18;96365.81;5113089;28;20450;-57
2022/12/28 06:18:42;;;;;;;2.23;1.53;;;;;;;5.62;90.44;96379.13;5112793;28;20463;-58
2022/12/28 06:21:13;;;;;;;2.80;2.60;;;;;;;4.99;84.95;96386.94;5112846;28;20470;-58
2022/12/28 06:23:42;;;;;;;2.20;1.87;;;;;;;5.35;86.90;96383.75;5112766;28;20527;-56
2022/12/28 06:26:14;;;;;;;1.30;1.27;;;;;;;4.84;85.70;96398.72;5112868;28;20461;-57
2022/12/28 06:28:43;;;;;;;3.77;3.37;;;;;;;4.57;89.80;96402.41;5112191;28;20474;-57
2022/12/28 06:31:12;;;;;;;3.33;3.03;;;;;;;5.13;93.71;96396.38;5111549;28;20458;-57
2022/12/28 06:33:42;;;;;;;3.63;3.10;;;;;;;5.32;87.59;96399.94;5111887;28;20526;-56
2022/12/28 06:36:12;;;;;;;1.70;1.60;;;;;;;4.54;90.50;96400.19;5111765;28;20865;-56
2022/12/28 06:38:47;;;;;;;2.33;2.23;;;;;;;4.86;92.91;96397.50;5112081;28;20428;-56
2022/12/28 06:41:19;;;;;;;1.60;1.50;;;;;;;5.77;95.60;96403.31;5112862;28;20416;-56
2022/12/28 06:43:48;;;;;;;3.07;2.97;;;;;;;5.19;89.75;96412.34;5112067;28;20795;-56
2022/12/28 06:46:19;;;;;;;2.57;2.33;;;;;;;5.77;89.12;96401.50;5112156;28;20448;-57
2022/12/28 06:48:47;;;;;;;3.60;3.30;;;;;;;5.47;86.59;96391.75;5111556;28;20849;-55
2022/12/28 06:51:18;;;;;;;7.33;2.77;;;;;;;5.46;89.15;96362.06;5111958;28;20496;-55
2022/12/28 06:53:47;;;;;;;2.60;2.40;;;;;;;5.89;85.59;96358.75;5111972;28;20426;-56
2022/12/28 06:56:19;;;;;;;3.80;2.93;;;;;;;6.50;83.06;96408.88;5111898;28;20424;-56
2022/12/28 06:58:48;;;;;;;6.20;5.60;;;;;;;6.03;85.82;96416.31;5112197;28;20431;-56
2022/12/28 07:01:19;;;;;;;8.70;6.70;;;;;;;5.91;85.45;96362.78;5111896;28;20459;-55
2022/12/28 07:03:49;;;;;;;15.43;1.10;;;;;;;6.54;84.29;96407.41;5111769;28;20477;-56
2022/12/28 07:06:19;;;;;;;2.70;1.90;;;;;;;6.70;84.96;96378.69;5112106;28;20424;-56
2022/12/28 07:08:48;;;;;;;1.53;1.43;;;;;;;6.68;84.20;96396.50;5112004;28;20551;-56
2022/12/28 07:11:20;;;;;;;6.43;5.93;;;;;;;5.90;86.30;96424.31;5112033;28;20881;-56
2022/12/28 07:13:49;;;;;;;5.30;4.67;;;;;;;5.29;90.79;96358.28;5111793;28;20423;-56
2022/12/28 07:16:19;;;;;;;4.67;4.40;;;;;;;6.06;90.22;96423.00;5112118;28;20803;-57
2022/12/28 07:18:48;;;;;;;11.00;2.83;;;;;;;5.97;89.64;96377.69;5111507;28;20479;-57
2022/12/28 07:21:19;;;;;;;8.57;2.60;;;;;;;6.38;86.63;96399.03;5111400;28;20528;-57
2022/12/28 07:23:48;;;;;;;2.60;2.40;;;;;;;6.77;86.13;96424.19;5111567;28;20566;-57
2022/12/28 07:26:20;;;;;;;3.23;3.03;;;;;;;6.89;83.95;96419.81;5111613;28;20464;-57
2022/12/28 07:28:50;;;;;;;4.90;2.60;;;;;;;7.12;83.38;96434.16;5111487;28;21003;-57
2022/12/28 07:31:21;;;;;;;1.40;1.40;;;;;;;7.33;81.90;96423.97;5111482;28;20461;-57
2022/12/28 07:33:50;;;;;;;1.93;1.83;;;;;;;7.54;80.74;96428.75;5111497;28;20467;-57
2022/12/28 07:36:20;;;;;;;2.50;2.40;;;;;;;7.38;80.91;96420.69;5111472;28;20433;-57
2022/12/28 07:38:49;;;;;;;3.37;3.10;;;;;;;7.27;80.94;96405.59;5111320;28;20423;-57
2022/12/28 07:41:21;;;;;;;4.17;4.00;;;;;;;7.41;80.51;96417.59;5111531;28;20525;-57
2022/12/28 07:43:49;;;;;;;2.80;2.40;;;;;;;7.33;81.55;96421.34;5115490;28;20444;-56
2022/12/28 07:46:20;;;;;;;4.27;4.17;;;;;;;7.40;81.49;96422.06;5115535;28;20747;-56
2022/12/28 07:48:50;;;;;;;4.73;4.40;;;;;;;7.81;81.10;96418.69;5115082;28;20518;-57
2022/12/28 07:51:20;;;;;;;3.87;3.57;;;;;;;7.79;80.50;96402.25;5114428;28;20522;-56
2022/12/28 07:53:49;;;;;;;6.17;3.90;;;;;;;7.60;80.90;96393.59;5115275;28;20426;-56
2022/12/28 07:56:20;;;;;;;2.00;1.90;;;;;;;7.61;80.97;96368.78;5114177;28;20924;-57
2022/12/28 07:58:49;;;;;;;5.90;2.87;;;;;;;7.94;81.12;96428.25;5115068;28;20437;-56
2022/12/28 08:01:18;;;;;;;7.43;5.20;;;;;;;8.01;81.42;96434.22;5115261;28;20510;-57
2022/12/28 08:03:47;;;;;;;19.23;4.40;;;;;;;8.12;81.34;96385.94;5115185;28;20489;-56
2022/12/28 08:06:18;;;;;;;14.63;4.13;;;;;;;8.46;80.53;96434.56;5115717;28;20977;-57
2022/12/28 08:08:48;;;;;;;5.03;4.60;;;;;;;8.49;80.25;96442.03;5115214;28;21051;-56
2022/12/28 08:11:20;;;;;;;7.93;1.80;;;;;;;8.60;79.76;96442.03;5115129;28;20456;-58
2022/12/28 08:13:51;;;;;;;2.57;2.37;;;;;;;8.48;79.84;96443.88;5114973;28;20437;-57
2022/12/28 08:16:21;;;;;;;2.30;2.20;;;;;;;8.01;81.68;96450.88;5115258;28;20428;-56
2022/12/28 08:18:50;;;;;;;4.27;3.87;;;;;;;7.28;82.60;96452.03;5114672;28;20430;-56
2022/12/28 08:21:20;;;;;;;2.17;2.07;;;;;;;7.13;84.81;96441.88;5114341;28;20507;-57
2022/12/28 08:23:48;;;;;;;4.23;2.13;;;;;;;6.94;85.89;96437.59;5114866;28;20764;-58
2022/12/28 08:26:20;;;;;;;3.87;3.67;;;;;;;7.45;85.26;96450.41;5115005;28;20418;-56
2022/12/28 08:28:51;;;;;;;2.30;2.20;;;;;;;7.79;83.31;96447.13;5114563;28;20476;-54
2022/12/28 08:31:21;;;;;;;5.43;4.23;;;;;;;7.85;82.36;96448.84;5114982;28;20422;-57
2022/12/28 08:33:50;;;;;;;3.70;3.60;;;;;;;7.88;81.56;96423.84;5114323;28;20426;-57
2022/12/28 08:36:19;;;;;;;3.20;3.10;;;;;;;8.10;80.56;96411.72;5114361;28;20425;-56
2022/12/28 08:38:47;;;;;;;1.97;1.80;;;;;;;9.37;100.00;96435.53;5114528;28;20863;-55
2022/12/28 08:41:18;;;;;;;4.30;4.00;;;;;;;9.75;100.00;96426.19;5114355;28;20526;-57
2022/12/28 08:43:48;;;;;;;3.53;1.17;;;;;;;8.91;84.55;96432.97;5114299;28;20424;-58
2022/12/28 08:46:18;;;;;;;3.97;3.63;;;;;;;8.25;86.00;96435.88;5114065;28;20527;-57
2022/12/28 08:48:48;;;;;;;5.47;4.80;;;;;;;7.60;88.53;96405.97;5114222;28;20465;-58
2022/12/28 08:51:18;;;;;;;19.83;5.40;;;;;;;7.60;89.30;96433.16;5114144;28;20467;-58
2022/12/28 08:53:47;;;;;;;8.07;6.03;;;;;;;7.33;93.07;96431.91;5113096;28;20433;-57
2022/12/28 08:56:19;;;;;;;4.50;4.30;;;;;;;7.27;94.57;96431.94;5113906;28;20515;-58
2022/12/28 08:58:52;;;;;;;10.23;9.50;;;;;;;7.10;94.24;96430.94;5113502;28;20434;-58
2022/12/28 09:01:22;;;;;;;12.63;9.00;;;;;;;6.66;98.77;96426.72;5113909;28;20428;-58
2022/12/28 09:03:52;;;;;;;12.30;6.87;;;;;;;6.75;100.00;96430.72;5113813;28;20495;-58
2022/12/28 09:06:26;;;;;;;5.23;4.23;;;;;;;6.72;100.00;96428.50;5113859;28;20966;-57
2022/12/28 09:08:56;;;;;;;2.70;2.60;;;;;;;6.83;97.12;96427.78;5113941;28;20819;-57
2022/12/28 09:11:33;;;;;;;3.53;3.40;;;;;;;6.87;98.07;96435.03;5112990;28;20432;-58
2022/12/28 09:14:04;;;;;;;6.40;6.07;;;;;;;6.72;98.24;96441.69;5113364;28;20533;-57
2022/12/28 09:16:33;;;;;;;2.97;2.00;;;;;;;7.06;96.91;96435.06;5113299;28;20471;-57
2022/12/28 09:19:03;;;;;;;5.43;5.23;;;;;;;6.83;98.14;96436.47;5114085;28;20432;-57
2022/12/28 09:21:34;;;;;;;3.97;2.50;;;;;;;6.96;98.74;96440.81;5113463;28;21105;-57
2022/12/28 09:24:03;;;;;;;10.90;4.37;;;;;;;6.89;97.56;96445.34;5113220;28;20432;-57
2022/12/28 09:26:34;;;;;;;1.43;1.33;;;;;;;7.39;94.05;96446.81;5113614;28;20452;-57
2022/12/28 09:29:07;;;;;;;3.20;3.00;;;;;;;7.35;95.13;96442.22;5113374;28;20468;-58
2022/12/28 09:31:37;;;;;;;0.97;0.97;;;;;;;7.61;92.23;96433.97;5113262;28;20428;-57
2022/12/28 09:34:06;;;;;;;1.73;1.23;;;;;;;7.54;91.62;96417.41;5114145;28;20429;-58
2022/12/28 09:36:54;;;;;;;2.20;0.70;;;;;;;7.84;88.47;96412.94;5113676;28;20805;-58
2022/12/28 09:39:23;;;;;;;2.30;2.10;;;;;;;7.64;89.96;96426.41;5113711;28;20420;-58
2022/12/28 09:41:55;;;;;;;5.40;0.77;;;;;;;7.81;89.74;96420.50;5113930;28;20470;-58
2022/12/28 09:44:49;;;;;;;3.00;2.70;;;;;;;7.66;90.67;96413.00;5113576;28;20424;-58
2022/12/28 09:47:27;;;;;;;1.33;1.23;;;;;;;7.96;88.78;96403.22;5113395;28;20467;-58
2022/12/28 09:50:07;;;;;;;3.37;3.17;;;;;;;7.76;88.86;96399.25;5112763;28;20689;-58
2022/12/28 09:52:52;;;;;;;2.40;2.20;;;;;;;7.81;90.22;96402.03;5113177;28;20432;-57
2022/12/28 09:55:20;;;;;;;7.47;2.00;;;;;;;7.88;90.59;96389.53;5113227;28;20428;-58
2022/12/28 09:57:51;;;;;;;1.87;1.77;;;;;;;7.99;89.04;96380.84;5092736;28;20432;-58
2022/12/28 10:00:24;;;;;;;4.57;4.03;;;;;;;7.56;92.93;96375.78;5092266;28;21050;-57
2022/12/28 10:02:56;;;;;;;3.73;3.43;;;;;;;7.70;92.82;96356.09;5092943;28;20420;-57
2022/12/28 10:05:26;;;;;;;6.00;4.20;;;;;;;7.55;92.81;96400.56;5092369;28;20556;-58
2022/12/28 10:07:58;;;;;;;4.03;3.70;;;;;;;7.33;95.74;96405.53;5092803;28;20500;-57
2022/12/28 10:10:28;;;;;;;5.77;5.47;;;;;;;7.11;97.39;96399.06;5092371;28;20563;-57
2022/12/28 10:13:08;;;;;;;6.23;4.53;;;;;;;7.13;99.05;96398.88;5092619;28;20426;-58
2022/12/28 10:15:58;;;;;;;6.60;5.67;;;;;;;7.46;97.70;96394.00;5092289;28;20434;-57
2022/12/28 10:18:28;;;;;;;4.83;4.60;;;;;;;7.66;95.29;96395.31;5092718;28;20802;-57
2022/12/28 10:21:03;;;;;;;3.47;3.27;;;;;;;7.98;91.95;96398.53;5092258;28;20433;-57
2022/12/28 10:23:35;;;;;;;10.73;2.93;;;;;;;7.78;92.20;96397.19;5092486;28;20440;-57
2022/12/28 10:26:23;;;;;;;2.50;2.40;;;;;;;7.80;92.23;96387.22;5092092;28;20442;-57
2022/12/28 10:28:54;;;;;;;4.80;4.70;;;;;;;7.94;91.05;96367.53;5091772;28;20454;-57
2022/12/28 10:31:34;;;;;;;2.30;2.20;;;;;;;8.18;89.90;96374.44;5092063;28;20505;-57
2022/12/28 10:34:11;;;;;;;8.07;3.80;;;;;;;8.11;90.77;96373.75;5092463;28;20423;-56
2022/12/28 10:36:40;;;;;;;6.27;2.13;;;;;;;8.22;91.17;96378.25;5092151;28;20929;-56
2022/12/28 10:39:15;;;;;;;3.83;3.63;;;;;;;8.21;90.07;96377.44;5091988;28;20952;-56
2022/12/28 10:41:46;;;;;;;4.47;3.70;;;;;;;7.63;91.85;96363.31;5092204;28;20437;-56
2022/12/28 10:44:25;;;;;;;3.93;3.60;;;;;;;7.86;93.20;96365.22;5091855;28;20433;-57
2022/12/28 10:47:24;;;;;;;18.40;5.93;;;;;;;8.32;90.75;96370.59;5092146;28;20492;-57
2022/12/28 10:49:52;;;;;;;20.23;6.03;;;;;;;8.39;89.53;96373.91;5091427;28;20516;-57
2022/12/28 10:52:41;;;;;;;15.63;5.40;;;;;;;8.37;88.58;96360.16;5091541;28;20500;-57
2022/12/28 10:55:28;;;;;;;4.60;2.80;;;;;;;8.49;88.44;96355.66;5091729;28;20461;-57
2022/12/28 10:57:56;;;;;;;4.00;3.70;;;;;;;8.45;87.92;96351.84;5091789;28;20763;-57
2022/12/28 11:00:53;;;;;;;2.37;2.03;;;;;;;8.49;87.92;96363.59;5091512;28;20766;-56
2022/12/28 11:03:27;;;;;;;4.93;4.73;;;;;;;8.40;88.24;96359.66;5091684;28;20475;-56
2022/12/28 11:06:14;;;;;;;5.77;5.40;;;;;;;8.44;89.30;96363.47;5091505;28;21036;-56
2022/12/28 11:09:00;;;;;;;3.93;3.73;;;;;;;8.45;88.30;96359.00;5091663;28;20429;-57
2022/12/28 11:11:29;;;;;;;1.70;1.60;;;;;;;7.71;87.28;96201.22;5091559;28;20577;-56
2022/12/28 11:14:02;;;;;;;4.93;1.57;;;;;;;8.50;87.06;96362.53;5091667;28;20951;-57
2022/12/28 11:16:35;;;;;;;5.67;3.57;;;;;;;8.37;88.24;96354.88;5090702;28;20434;-56
2022/12/28 11:19:05;;;;;;;3.10;2.90;;;;;;;8.32;89.87;96357.38;5091547;28;20518;-56
2022/12/28 11:21:34;;;;;;;6.73;5.90;;;;;;;8.54;88.42;96352.31;5091123;28;20869;-57
2022/12/28 11:24:04;;;;;;;1.87;1.73;;;;;;;8.33;86.04;96290.31;5091498;28;20431;-56
2022/12/28 11:26:33;;;;;;;4.10;3.93;;;;;;;8.70;85.11;96348.97;5091746;28;20421;-57
2022/12/28 11:29:02;;;;;;;3.40;3.30;;;;;;;8.73;83.55;96349.31;5091411;28;20426;-57
2022/12/28 11:31:35;;;;;;;4.00;2.40;;;;;;;8.65;82.42;96344.38;5091387;28;20470;-57
2022/12/28 11:34:06;;;;;;;20.23;3.03;;;;;;;7.92;87.66;96345.84;5091659;28;20536;-57
2022/12/28 11:36:40;;;;;;;3.70;3.10;;;;;;;8.14;90.58;96338.97;5091520;28;20878;-56
2022/12/28 11:39:31;;;;;;;3.80;3.50;;;;;;;8.10;91.45;96343.09;5090963;28;20454;-56
2022/12/28 11:42:00;;;;;;;5.00;4.67;;;;;;;8.18;92.14;96342.75;5091059;28;20950;-56
2022/12/28 11:44:51;;;;;;;8.17;5.10;;;;;;;8.05;89.98;96282.25;5091175;28;20961;-56
2022/12/28 11:47:32;;;;;;;3.20;2.80;;;;;;;8.24;89.03;96328.63;5091123;28;20520;-56
2022/12/28 11:50:38;;;;;;;9.53;6.27;;;;;;;8.09;91.41;96352.06;5091074;28;20477;-56
2022/12/28 11:53:23;;;;;;;4.97;4.77;;;;;;;8.06;90.02;96328.75;5091136;28;20532;-56
2022/12/28 11:56:10;;;;;;;4.23;4.07;;;;;;;8.23;89.86;96350.78;5091395;28;20511;-56
2022/12/28 11:59:02;;;;;;;3.47;3.17;;;;;;;8.16;90.91;96353.56;5091580;28;20433;-57
2022/12/28 12:01:47;;;;;;;6.63;5.97;;;;;;;8.30;89.83;96338.31;5091634;28;20445;-56
2022/12/28 12:04:41;;;;;;;2.20;2.10;;;;;;;8.34;87.00;96342.09;5091301;28;20540;-56
2022/12/28 12:07:19;;;;;;;1.13;1.13;;;;;;;8.08;89.59;96331.94;5091617;28;20437;-57
2022/12/28 12:10:04;;;;;;;3.70;3.53;;;;;;;8.03;89.98;96305.44;5090937;28;20434;-55
2022/12/28 12:12:35;;;;;;;5.50;2.10;;;;;;;8.25;89.57;96335.50;5091136;28;20440;-56
2022/12/28 12:15:15;;;;;;;2.20;2.10;;;;;;;8.33;89.05;96337.84;5091142;28;20444;-56
2022/12/28 12:17:47;;;;;;;2.53;0.90;;;;;;;8.50;87.43;96330.81;5090806;28;20498;-56
2022/12/28 12:20:25;;;;;;;6.50;2.00;;;;;;;8.44;88.17;96330.97;5091220;28;20422;-56
2022/12/28 12:23:03;;;;;;;2.70;2.23;;;;;;;8.41;87.26;96313.72;5090126;28;20426;-57
2022/12/28 12:25:39;;;;;;;2.53;2.33;;;;;;;8.38;87.05;96319.47;5091111;28;20766;-56
2022/12/28 12:28:16;;;;;;;2.63;2.53;;;;;;;8.46;90.02;96328.88;5090828;28;20441;-56
2022/12/28 12:30:46;;;;;;;3.67;3.57;;;;;;;8.66;87.06;96330.13;5093638;28;20497;-56
2022/12/28 12:33:22;;;;;;;2.00;1.90;;;;;;;8.68;87.52;96325.41;5094807;28;20443;-56
2022/12/28 12:36:02;;;;;;;1.77;1.40;;;;;;;8.51;89.23;96313.94;5094759;28;20440;-56